Terminal Aerodrome Forecast
Issued by NWS

Home | Current Version | Previous Version | Text Only | Print | Product List | Glossary On
Versions: 1 2 3 4 5 6 7 8 9 10 11 12 13 14 15 16 17 18 19 20 21 22 23 24 25 26 27 28 29
000
FTUS41 KBUF 260542 CCA
TAFJHW
TAF COR
KJHW 260542Z 2606/2706 12004KT P6SM FEW250
     FM260900 VRB03KT 1SM BR SCT007
     FM261200 15004KT P6SM BKN030
     FM261400 19007KT P6SM FEW250
      AMD LTD TO CLD VIS AND WIND=

USA.gov is the U.S. government's official web portal to all federal, state and local government web resources and services.